Cooke City, Montana
Current Conditions -  °F | °C
As of 3:53 AM on Sunday 21 Dec 2014 (Local Time) from KLVM Reporting Station
Overcast Overcast  
Wind Chill: 32°   Ceiling: 7000
Heat Index: 43°   Visibility: 10mi
Dew Point: 27°   Wind: 33mph
Humidity: 53%   Direction: 220°SW
Pressure: 29.5"   Gusts: 48mph
Location:  45.02°N, 109.94°W
Report Text: KLVM 211053Z AUTO 22029G42KT 10SM SCT050 BKN070 OVC110 06/M03 A2950 RMK AO2 PK WND 21052/1006 SLP988 T00611028
Loading
Personal Weather Stations






























Interactive Weather Map New forecast layout! Learn more

10-Day Weather Forecast

Advertisements
Track Severe Weather on mobile